Alinda, Pennsylvania
Current Conditions -  °F | °C
As of 11:56 AM on Monday 22 Dec 2014 (Local Time) from KCXY Reporting Station
Haze Haze  
Wind Chill: 32°   Ceiling: 1800
Heat Index: 32°   Visibility: 6mi
Dew Point: 25°   Wind: 3mph
Humidity: 75%   Direction: 300°WNW
Pressure: 30.28"   Gusts: NA
Location:  40.3086°N, 77.3363°W
Report Text: KCXY 221656Z 30003KT 6SM HZ BKN018 OVC039 00/M04 A3028 RMK AO2 SLP258 T00001039
Loading
Personal Weather Stations






























Interactive Weather Map New forecast layout! Learn more

10-Day Weather Forecast

Advertisements
Track Severe Weather on mobile